Depesze METAR z lotnisk oddalonych od Rybnika do 200 kilometrów

LKMT - Ostrava/Mosnov, Czech Republic
Distance from station: SSW 55km
Aktualizacja: Mon, 24/06/2019 11:30 CEST
Few Clouds
Few Clouds
 Wind from NNE
Wiatr: NNE 26 km/h
Temperatura: 25°C
Punkt rosy: 16°C
Wilgotnosc: 57%
Cisnienie: 1023 hPa
Chmury: Few Clouds
Widocznosc: 10 km
Chmury-opis: Few Clouds 1341 m
2019/06/24 09:30 LKMT 240930Z 02014KT 350V050 9999 FEW044 25/16 Q1023 NOSIG
EPKT - Katowice/Pyrzowi, Poland
Distance from station: NE 58km
Aktualizacja: Mon, 24/06/2019 11:30 CEST
Partly Cloudy
Partly Cloudy
 Wind from NE
Wiatr: NE 19 km/h
Temperatura: 24°C
Punkt rosy: 13°C
Wilgotnosc: 50%
Cisnienie: 1024 hPa
Chmury: Partly Cloudy
Widocznosc: 10 km
Chmury-opis: Partly Cloudy 1250 m
2019/06/24 09:30 EPKT 240930Z 05010KT 020V090 9999 SCT041 24/13 Q1024
 
EPKK - Krakow/Balice, Poland
Distance from station: E 91km
Aktualizacja: Mon, 24/06/2019 11:30 CEST
Partly Cloudy
Partly Cloudy
 Wind from ENE
Wiatr: ENE 20 km/h
Temperatura: 25°C
Punkt rosy: 14°C
Wilgotnosc: 51%
Cisnienie: 1023 hPa
Chmury: Partly Cloudy
Widocznosc: 10 km
Chmury-opis: Partly Cloudy 1311 m
2019/06/24 09:30 EPKK 240930Z 07011KT 030V100 9999 SCT043 25/14 Q1023
LZZI - Zilina, Slovakia
Distance from station: S 95km
Aktualizacja: Mon, 24/06/2019 11:30 CEST
Few Clouds
Few Clouds
 Wind from ENE
Wiatr: ENE 31 km/h
Temperatura: 26°C
Punkt rosy: 13°C
Wilgotnosc: 45%
Cisnienie: 1021 hPa
Chmury: Few Clouds
Widocznosc: 10 km
Chmury-opis: Few Clouds 1341 m
2019/06/24 09:30 LZZI 240930Z 07017KT 9999 FEW044 26/13 Q1021
 
LKKU - Kunovice, Czech Republic
Distance from station: SW 139km
Aktualizacja: Mon, 24/06/2019 11:00 CEST
Few Clouds
Few Clouds
 Wind from NNE
Wiatr: NNE 30 km/h
Temperatura: 24°C
Punkt rosy: 15°C
Wilgotnosc: 57%
Cisnienie: 1020 hPa
Chmury: Few Clouds
Widocznosc: 10 km
Chmury-opis: Few Clouds 1097 m
2019/06/24 09:00 LKKU 240900Z 02016KT 340V140 9999 FEW036 24/15 Q1020
EPWR - Wroclaw/Strachow, Poland
Distance from station: NW 163km
Aktualizacja: Mon, 24/06/2019 11:30 CEST
Clear
Clear
 Wind from E
Wiatr: E 13 km/h
Temperatura: 25°C
Punkt rosy: 11°C
Wilgotnosc: 42%
Cisnienie: 1024 hPa
Kondycja: Clear
Widocznosc: greater than 10 km
2019/06/24 09:30 EPWR 240930Z 09007KT 040V140 CAVOK 25/11 Q1024
 
LZSL - Sliac, Slovakia
Distance from station: SSE 168km
Aktualizacja: Mon, 24/06/2019 11:30 CEST
Few Clouds
Few Clouds
 Wind from NNW
Wiatr: NNW 11 km/h
Temperatura: 27°C
Heat Index: 28°C
Punkt rosy: 16°C
Wilgotnosc: 51%
Cisnienie: 1020 hPa
Chmury: Few Clouds
Widocznosc: 10 km
Chmury-opis: Few Clouds 1402 m
2019/06/24 09:30 LZSL 240930Z 34006KT 310V010 9999 FEW046 27/16 Q1020
LZTT - Poprad/Tatry, Slovakia
Distance from station: SE 168km
Aktualizacja: Mon, 24/06/2019 11:30 CEST
Few Clouds
Few Clouds
 Wind from NE
Wiatr: NE 33 km/h
Temperatura: 21°C
Punkt rosy: 14°C
Wilgotnosc: 64%
Cisnienie: 1023 hPa
Chmury: Few Clouds
Widocznosc: 10 km
Chmury-opis: Few Clouds 1524 m
2019/06/24 09:30 LZTT 240930Z 05018KT 9999 FEW050 21/14 Q1023 NOSIG
 
LKTB - Brno/Turany, Czech Republic
Distance from station: SW 170km
Aktualizacja: Mon, 24/06/2019 11:30 CEST
Few Clouds
Few Clouds
 Wind from NE
Wiatr: NE 17 km/h
Temperatura: 26°C
Punkt rosy: 14°C
Wilgotnosc: 48%
Cisnienie: 1022 hPa
Chmury: Few Clouds
Widocznosc: 10 km
Chmury-opis: Few Clouds 1402 m
2019/06/24 09:30 LKTB 240930Z 04009KT 310V090 9999 FEW046 26/14 Q1022 NOSIG
LZPP - Piestany, Slovakia
Distance from station: SSW 171km
Aktualizacja: Mon, 24/06/2019 11:30 CEST
Few Clouds
Few Clouds
 Wind from N
Wiatr: N 13 km/h
Temperatura: 27°C
Heat Index: 28°C
Punkt rosy: 18°C
Wilgotnosc: 58%
Cisnienie: 1020 hPa
Chmury: Few Clouds
Widocznosc: 10 km
Chmury-opis: Few Clouds 1219 m
2019/06/24 09:30 LZPP 240930Z 35007KT 310V030 9999 FEW040 27/18 Q1020
 
EPLL - Lodz/Lublinek, Poland
Distance from station: NNE 191km
Aktualizacja: Mon, 24/06/2019 11:30 CEST
Clear
Clear
 Wind from E
Wiatr: E 22 km/h
Temperatura: 26°C
Punkt rosy: 9°C
Wilgotnosc: 34%
Cisnienie: 1025 hPa
Kondycja: Clear
Widocznosc: greater than 10 km
2019/06/24 09:30 EPLL 240930Z 08012KT CAVOK 26/09 Q1025
LKPD - Pardubice, Czech Republic
Distance from station: W 200km
Aktualizacja: Mon, 24/06/2019 11:00 CEST
Clear
Clear
 Wind from varies
Wiatr: varies 6 km/h
Temperatura: 25°C
Punkt rosy: 10°C
Wilgotnosc: 39%
Cisnienie: 1023 hPa
Kondycja: Clear
Widocznosc: greater than 10 km
2019/06/24 09:00 LKPD 240900Z VRB03KT CAVOK 25/10 Q1023 NOSIG RMK BLU BLU

Metar display script from Saratoga-Weather.org